Flight Track Log - Related Links

Times and Time Zones

All times are in EDT time to prevent confusion due to time zone crossing. See the AAY894 flight status page for this flight to view local times or setup timezone preferences in your user account.

Time Position Orientation Groundspeed Altitude Reporting Facility
EDT Latitude Longitude Course Direction KTS MPH feet Rate Location/Type
Sun 08:32:13 AM 27.9333 -82.7000 41° Northeast 165 190 1,000  Level Tampa TRACON
Sun 08:33:07 AM 27.9667 -82.6667 41° Northeast 187 215 2,700 1,684 Climbing Tampa TRACON
Sun 08:34:07 AM 28.0333 -82.6500 12° North 218 251 4,200 1,700 Climbing Tampa TRACON
Sun 08:35:07 AM 28.1000 -82.6333 12° North 281 323 6,100 2,384 Climbing Tampa TRACON
Sun 08:36:38 AM 28.2039 -82.6169 North 281 323 10,200 2,146 Climbing Jacksonville Center
Sun 08:37:38 AM 28.2872 -82.5981 11° North 281 323 11,500 1,350 Climbing Jacksonville Center
Sun 08:38:38 AM 28.3853 -82.5742 12° North 317 365 12,900 1,950 Climbing Jacksonville Center
Sun 08:39:38 AM 28.4917 -82.5431 14° North 359 413 15,400 2,250 Climbing Jacksonville Center
Sun 08:40:38 AM 28.6003 -82.5261 North 380 437 17,400 2,100 Climbing Jacksonville Center
Sun 08:41:38 AM 28.7169 -82.5350 356° North 385 443 19,600 2,000 Climbing Jacksonville Center
Sun 08:42:38 AM 28.8297 -82.5442 356° North 392 451 21,400 1,600 Climbing Jacksonville Center
Sun 08:43:38 AM 28.9447 -82.5533 356° North 403 464 22,800 1,350 Climbing Jacksonville Center
Sun 08:44:38 AM 29.0636 -82.5647 355° North 409 471 24,100 1,750 Climbing Jacksonville Center
Sun 08:45:38 AM 29.1825 -82.5739 356° North 420 483 26,300 2,200 Climbing Jacksonville Center
Sun 08:46:38 AM 29.2975 -82.5831 356° North 420 483 28,500 1,650 Climbing Jacksonville Center
Sun 08:47:38 AM 29.4061 -82.5922 356° North 414 476 29,600 1,050 Climbing Jacksonville Center
Sun 08:48:38 AM 29.5189 -82.6014 356° North 401 461 30,600 650 Climbing Jacksonville Center
Sun 08:49:38 AM 29.6294 -82.6106 356° North 401 461 30,900 150 Climbing Jacksonville Center
Sun 08:50:38 AM 29.7422 -82.6175 357° North 401 461 30,900  Level Jacksonville Center
Sun 08:51:38 AM 29.8508 -82.6292 355° North 401 461 30,900  Level Jacksonville Center
Sun 08:52:38 AM 29.9636 -82.6383 356° North 401 461 30,900  Level Jacksonville Center
Sun 08:53:38 AM 30.0742 -82.6478 356° North 401 461 30,900  Level Jacksonville Center
Sun 08:54:38 AM 30.1806 -82.6572 356° North 396 456 30,900  Level Jacksonville Center
Sun 08:55:38 AM 30.2933 -82.6664 356° North 396 456 30,900  Level Jacksonville Center
Sun 08:56:38 AM 30.4042 -82.6758 356° North 391 450 30,900  Level Jacksonville Center
Sun 08:57:38 AM 30.5128 -82.6828 357° North 391 450 30,900  Level Jacksonville Center
Sun 08:58:38 AM 30.6275 -82.6681 North 391 450 30,900  Level Jacksonville Center
Sun 08:59:38 AM 30.7464 -82.6483 North 414 476 30,900  Level Jacksonville Center
Sun 09:00:38 AM 30.8633 -82.6239 10° North 419 482 30,900  Level Jacksonville Center
Sun 09:01:38 AM 30.9761 -82.6017 10° North 424 488 30,900  Level Jacksonville Center
Sun 09:02:38 AM 31.0908 -82.5797 North 424 488 30,900  Level Jacksonville Center
Sun 09:03:38 AM 31.2078 -82.5550 10° North 424 488 30,900  Level Jacksonville Center
Sun 09:04:38 AM 31.3247 -82.5325 North 424 488 30,900 32 Level Jacksonville Center
Sun 09:06:46 AM 31.5636 -82.4814 10° North 425 489 31,000 32 Climbing Atlanta Center
Sun 09:07:46 AM 31.6781 -82.4575 10° North 420 483 31,000  Level Atlanta Center
Sun 09:08:46 AM 31.7883 -82.4361 North 408 470 31,000  Level Atlanta Center
Sun 09:09:46 AM 31.8986 -82.4119 11° North 408 470 31,000  Level Atlanta Center
Sun 09:10:46 AM 32.0131 -82.3903 North 408 470 31,000  Level Atlanta Center
Sun 09:11:46 AM 32.1278 -82.3686 North 408 470 31,000  Level Atlanta Center
Sun 09:12:46 AM 32.2381 -82.3419 12° North 408 470 31,000  Level Atlanta Center
Sun 09:13:46 AM 32.3358 -82.3256 North 401 461 31,000  Level Atlanta Center
Sun 09:14:46 AM 32.4481 -82.2986 11° North 401 461 31,000  Level Atlanta Center
Sun 09:15:46 AM 32.5583 -82.2767 10° North 401 461 31,000  Level Atlanta Center
Sun 09:16:46 AM 32.6708 -82.2547 North 407 468 31,000  Level Atlanta Center
Sun 09:17:46 AM 32.7853 -82.2303 10° North 412 474 31,000  Level Atlanta Center
Sun 09:18:46 AM 32.8936 -82.2081 10° North 407 468 31,000 350 Level Atlanta Center
Sun 09:19:46 AM 33.0183 -82.1808 10° North 407 468 31,700 1,000 Climbing Atlanta Center
Sun 09:20:46 AM 33.1244 -82.1586 10° North 402 463 33,000 650 Climbing Atlanta Center
Sun 09:21:46 AM 33.2328 -82.1364 10° North 397 457 33,000  Level Atlanta Center
Sun 09:22:46 AM 33.3428 -82.1117 11° North 397 457 33,000  Level Atlanta Center
Sun 09:23:46 AM 33.4511 -82.0894 10° North 392 451 33,000  Level Atlanta Center
Sun 09:24:46 AM 33.5614 -82.0669 10° North 392 451 33,000  Level Atlanta Center
Sun 09:25:46 AM 33.6717 -82.0419 11° North 392 451 33,000  Level Atlanta Center
Sun 09:26:46 AM 33.7797 -82.0194 10° North 392 451 33,000  Level Atlanta Center
Sun 09:27:46 AM 33.8900 -81.9969 10° North 397 457 33,000  Level Atlanta Center
Sun 09:28:46 AM 33.9919 -81.9742 10° North 397 457 33,000  Level Atlanta Center
Sun 09:29:46 AM 34.1022 -81.9517 10° North 397 457 33,000  Level Atlanta Center
Sun 09:30:46 AM 34.2164 -81.9261 10° North 407 468 33,000  Level Atlanta Center
Sun 09:31:46 AM 34.3308 -81.9031 North 412 474 33,000  Level Atlanta Center
Sun 09:32:46 AM 34.4431 -81.8775 11° North 412 474 33,000  Level Atlanta Center
Sun 09:33:46 AM 34.5553 -81.8544 10° North 406 467 33,000  Level Atlanta Center
Sun 09:34:46 AM 34.6822 -81.8286 North 411 473 33,000  Level Atlanta Center
Sun 09:35:46 AM 34.7967 -81.8078 North 411 473 33,000  Level Atlanta Center
Sun 09:36:46 AM 34.9108 -81.7819 11° North 411 473 33,000  Level Atlanta Center
Sun 09:37:46 AM 35.0272 -81.7561 10° North 411 473 33,000  Level Atlanta Center
Sun 09:38:46 AM 35.1394 -81.7300 11° North 411 473 33,000  Level Atlanta Center
Sun 09:39:46 AM 35.2536 -81.7039 11° North 411 473 33,000  Level Atlanta Center
Sun 09:40:46 AM 35.3703 -81.6803 North 411 473 33,000  Level Atlanta Center
Sun 09:41:46 AM 35.4864 -81.6539 10° North 411 473 33,000  Level Atlanta Center
Sun 09:42:46 AM 35.5800 -81.6308 11° North 416 479 33,000  Level Atlanta Center
Sun 09:43:46 AM 35.7086 -81.6042 10° North 421 484 33,000  Level Atlanta Center
Sun 09:44:46 AM 35.8272 -81.5775 10° North 426 490 33,000  Level Atlanta Center
Sun 09:45:46 AM 35.9453 -81.5483 11° North 426 490 33,000  Level Atlanta Center
Sun 09:46:46 AM 36.0617 -81.5217 10° North 425 489 33,000  Level Atlanta Center
Sun 09:47:46 AM 36.1819 -81.4947 10° North 425 489 33,000  Level Atlanta Center
Sun 09:48:46 AM 36.3044 -81.4675 10° North 431 496 33,000  Level Atlanta Center
Sun 09:49:46 AM 36.4269 -81.4403 10° North 436 502 33,000  Level Atlanta Center
Sun 09:50:46 AM 36.5472 -81.4106 11° North 436 502 33,000  Level Atlanta Center
Sun 09:52:07 AM 36.7200 -81.3692 11° North 444 511 33,000  Level Indianapolis Center
Sun 09:53:09 AM 36.8417 -81.3422 10° North 448 516 33,000  Level Indianapolis Center
Sun 09:54:10 AM 36.9625 -81.3144 10° North 449 517 33,000  Level Indianapolis Center
Sun 09:55:12 AM 37.0950 -81.2836 11° North 449 517 33,000  Level Indianapolis Center
Sun 09:56:13 AM 37.2178 -81.2547 11° North 449 517 33,000  Level Indianapolis Center
Sun 09:57:15 AM 37.3453 -81.2253 10° North 449 517 33,000  Level Indianapolis Center
Sun 09:58:16 AM 37.4656 -81.1969 11° North 449 517 33,000  Level Indianapolis Center
Sun 09:59:18 AM 37.5878 -81.1681 11° North 450 518 33,000  Level Indianapolis Center
Sun 10:00:19 AM 37.7344 -81.1339 10° North 454 522 33,000  Level Indianapolis Center
Sun 10:01:21 AM 37.8533 -81.1039 11° North 454 522 33,000  Level Indianapolis Center
Sun 10:02:23 AM 37.9789 -81.0661 13° North 456 525 33,000  Level Indianapolis Center
Sun 10:03:24 AM 38.1042 -81.0294 13° North 460 529 33,000  Level Indianapolis Center
Sun 10:04:26 AM 38.2269 -80.9950 12° North 459 528 33,000  Level Indianapolis Center
Sun 10:05:27 AM 38.3517 -80.9581 13° North 459 528 33,000  Level Indianapolis Center
Sun 10:06:29 AM 38.4994 -80.9153 13° North 459 528 33,000  Level Indianapolis Center
Sun 10:07:30 AM 38.6228 -80.8786 13° North 459 528 33,000  Level Indianapolis Center
Sun 10:08:32 AM 38.7444 -80.8425 13° North 456 525 33,000  Level Indianapolis Center
Sun 10:09:33 AM 38.8669 -80.8064 13° North 455 524 33,000  Level Indianapolis Center
Sun 10:10:35 AM 38.9906 -80.7711 13° North 455 524 33,000  Level Indianapolis Center
Sun 10:11:36 AM 39.1128 -80.7333 13° North 455 524 33,000  Level Indianapolis Center
Sun 10:12:38 AM 39.2369 -80.6969 13° North 455 524 33,000  Level Indianapolis Center
Sun 10:13:39 AM 39.3858 -80.6519 13° North 455 524 33,000  Level Indianapolis Center
Sun 10:14:41 AM 39.5097 -80.6142 13° North 455 524 33,000  Level Indianapolis Center
Sun 10:15:51 AM 39.6428 -80.5758 13° North 455 524 33,000  Level Cleveland Center
Sun 10:16:53 AM 39.7656 -80.5375 13° North 452 520 33,000  Level Cleveland Center
Sun 10:17:54 AM 39.8897 -80.5006 13° North 453 521 33,000  Level Cleveland Center
Sun 10:18:56 AM 40.0133 -80.4633 13° North 454 522 33,000  Level Cleveland Center
Sun 10:19:57 AM 40.1642 -80.4169 13° North 456 525 33,000  Level Cleveland Center
Sun 10:20:59 AM 40.2906 -80.3783 13° North 461 531 33,000 -194 Level Cleveland Center
Sun 10:22:01 AM 40.4033 -80.3431 13° North 462 532 32,600 -537 Descending Cleveland Center
Sun 10:23:02 AM 40.5286 -80.3039 13° North 462 532 31,900 -732 Descending Cleveland Center
Sun 10:24:04 AM 40.6819 -80.2569 13° North 470 541 31,100 -439 Descending Cleveland Center
Sun 10:25:05 AM 40.8136 -80.2150 14° North 483 556 31,000 -49 Descending Cleveland Center
Sun 10:26:07 AM 40.9361 -80.1331 27° Northeast 513 590 31,000 -194 Level Cleveland Center
Sun 10:27:09 AM 41.0639 -80.0419 28° Northeast 520 598 30,600 -780 Descending Cleveland Center
Sun 10:28:10 AM 41.1931 -79.9475 29° Northeast 519 597 29,400 -1,415 Descending Cleveland Center
Sun 10:29:12 AM 41.3200 -79.8553 29° Northeast 519 597 27,700 -1,597 Descending Cleveland Center
Sun 10:30:14 AM 41.4472 -79.7619 29° Northeast 519 597 26,100 -1,790 Descending Cleveland Center
Sun 10:31:16 AM 41.5903 -79.6558 29° Northeast 490 564 24,000 -1,707 Descending Cleveland Center
Sun 10:32:17 AM 41.7011 -79.5739 29° Northeast 457 526 22,600 -1,512 Descending Cleveland Center
Sun 10:33:19 AM 41.8069 -79.4967 29° Northeast 436 502 20,900 -1,645 Descending Cleveland Center
Sun 10:34:21 AM 41.9081 -79.4203 29° Northeast 423 487 19,200 -1,500 Descending Cleveland Center
Sun 10:35:23 AM 42.0033 -79.3492 29° Northeast 397 457 17,800 -1,610 Descending Cleveland Center
Sun 10:36:24 AM 42.0961 -79.2811 29° Northeast 382 440 15,900 -1,854 Descending Cleveland Center
Sun 10:37:26 AM 42.1858 -79.2144 29° Northeast 373 429 14,000 -1,984 Descending Cleveland Center
Sun 10:38:28 AM 42.2897 -79.1361 29° Northeast 359 413 11,800 -1,463 Descending Cleveland Center
Sun 10:39:29 AM 42.3728 -79.0800 27° Northeast 336 387 11,000 -537 Descending Cleveland Center
Sun 10:40:31 AM 42.4461 -79.0286 27° Northeast 302 348 10,700 -1,065 Descending Cleveland Center
Sun 10:41:33 AM 42.5236 -78.9789 25° Northeast 288 331 8,800 -1,742 Descending Cleveland Center
Sun 10:42:35 AM 42.5944 -78.9392 22° Northeast 266 306 7,100 -878 Descending Cleveland Center
Sun 10:43:36 AM 42.6536 -78.9086 21° North 238 274 7,000 -49 Descending Cleveland Center
Sun 10:44:38 AM 42.7064 -78.8753 25° Northeast 204 235 7,000 -194 Level Cleveland Center
Sun 10:45:40 AM 42.7572 -78.8283 34° Northeast 208 239 6,600 -919 Descending Cleveland Center
Sun 10:46:42 AM 42.8117 -78.7808 33° Northeast 217 250 5,100 -780 Descending Cleveland Center
Sun 10:47:43 AM 42.8667 -78.7506 22° Northeast 211 243 5,000 -49 Descending Cleveland Center
Sun 10:48:45 AM 42.9211 -78.7519 359° North 206 237 5,000  Level Cleveland Center
Sun 10:49:36 AM 42.9667 -78.7500 North 198 228 5,000 -432 Level Buffalo TRACON
Sun 10:50:36 AM 43.0333 -78.7500 360° North 190 219 4,200 -1,200 Descending Buffalo TRACON
Sun 10:51:36 AM 43.0667 -78.7500 360° North 179 206 2,600 -1,056 Descending Buffalo TRACON
Sun 10:52:24 AM 43.1000 -78.7833 324° Northwest 152 175 2,300 -333 Descending Buffalo TRACON
Sun 10:53:24 AM 43.1167 -78.8333 295° West 131 151 2,000 -500 Descending Buffalo TRACON
Sun 10:54:24 AM 43.1167 -78.8833 270° West 129 148 1,300 -396 Descending Buffalo TRACON
Sun 10:54:55 AM 43.1092 -78.9039 243° Southwest 135 155 1,400 194 Climbing Cleveland Center

Login

Don't have an account? Register now (free) for customized features, flight alerts, and more!